createdAt,value
2023-02-16T00:00:40.869Z,79.80
2023-02-16T00:03:12.098Z,79.90
2023-02-16T00:05:38.785Z,79.90
2023-02-16T00:08:05.363Z,79.80
2023-02-16T00:10:33.658Z,79.60
2023-02-16T00:13:19.223Z,79.90
2023-02-16T00:15:46.351Z,80.00
2023-02-16T00:18:21.838Z,79.70
2023-02-16T00:20:48.991Z,79.70
2023-02-16T00:23:15.604Z,79.80
2023-02-16T00:25:42.169Z,79.80
2023-02-16T00:28:13.270Z,79.70
2023-02-16T00:30:39.914Z,79.90
2023-02-16T00:33:16.144Z,79.70
2023-02-16T00:35:43.008Z,79.80
2023-02-16T00:38:09.581Z,79.80
2023-02-16T00:40:36.335Z,79.70
2023-02-16T00:43:02.985Z,79.50
2023-02-16T00:45:30.804Z,79.80
2023-02-16T00:47:57.410Z,79.60
2023-02-16T00:50:23.938Z,79.60
2023-02-16T00:52:50.566Z,79.70
2023-02-16T00:55:21.169Z,79.70
2023-02-16T00:57:53.634Z,79.80
2023-02-16T01:00:25.115Z,80.20
2023-02-16T01:02:53.266Z,80.10
2023-02-16T01:05:19.922Z,80.00
2023-02-16T01:08:04.908Z,79.60
2023-02-16T01:11:10.563Z,79.50
2023-02-16T01:13:40.060Z,79.80
2023-02-16T01:16:11.041Z,79.80
2023-02-16T01:18:37.642Z,79.60
2023-02-16T01:21:04.624Z,79.30
2023-02-16T01:23:31.347Z,79.40
2023-02-16T01:25:57.938Z,80.10
2023-02-16T01:28:26.114Z,80.10
2023-02-16T01:30:53.222Z,79.90
2023-02-16T01:33:20.619Z,79.50
2023-02-16T01:35:47.505Z,79.40
2023-02-16T01:38:27.584Z,79.20
2023-02-16T01:41:03.411Z,79.20
2023-02-16T01:43:50.400Z,79.20
2023-02-16T01:46:24.235Z,79.10
2023-02-16T01:48:51.603Z,79.30
2023-02-16T01:51:29.348Z,79.10
2023-02-16T01:54:05.787Z,79.00
2023-02-16T01:56:50.006Z,79.00
2023-02-16T01:59:39.943Z,79.00
2023-02-16T02:02:16.505Z,79.00
2023-02-16T02:05:08.046Z,79.00
2023-02-16T02:07:41.146Z,79.00
2023-02-16T02:10:08.357Z,78.80
2023-02-16T02:12:39.198Z,78.80
2023-02-16T02:15:06.015Z,79.00
2023-02-16T02:17:32.836Z,78.70
2023-02-16T02:20:11.348Z,78.70
2023-02-16T02:23:16.001Z,78.90
2023-02-16T02:26:01.546Z,78.70
2023-02-16T02:28:35.785Z,78.70
2023-02-16T02:31:23.086Z,78.80
2023-02-16T02:34:08.260Z,78.70
2023-02-16T02:36:35.034Z,78.70
2023-02-16T02:39:14.489Z,78.70
2023-02-16T02:42:05.985Z,78.70
2023-02-16T02:44:39.604Z,78.70
2023-02-16T02:47:06.441Z,78.70
2023-02-16T02:49:33.048Z,78.70
2023-02-16T02:51:59.788Z,78.80
2023-02-16T02:54:47.829Z,78.60
2023-02-16T02:57:46.448Z,78.70
2023-02-16T03:00:40.240Z,78.60
2023-02-16T03:03:07.062Z,78.70
2023-02-16T03:05:34.714Z,78.90
2023-02-16T03:08:14.163Z,78.90
2023-02-16T03:11:04.246Z,79.10
2023-02-16T03:13:36.449Z,79.00
2023-02-16T03:16:07.714Z,78.70
2023-02-16T03:18:54.326Z,78.70
2023-02-16T03:21:39.418Z,78.70
2023-02-16T03:24:27.358Z,78.70
2023-02-16T03:27:12.635Z,78.70
2023-02-16T03:29:39.492Z,78.70
2023-02-16T03:32:06.265Z,78.70
2023-02-16T03:34:34.666Z,78.70
2023-02-16T03:37:01.785Z,78.70
2023-02-16T03:39:28.828Z,78.70
2023-02-16T03:41:56.506Z,78.70
2023-02-16T03:44:24.622Z,78.70
2023-02-16T03:46:51.579Z,78.60
2023-02-16T03:49:19.250Z,78.70
2023-02-16T03:51:46.395Z,78.60
2023-02-16T03:54:13.065Z,78.70
2023-02-16T03:56:39.673Z,78.50
2023-02-16T03:59:06.247Z,78.50
2023-02-16T04:01:32.834Z,78.50
2023-02-16T04:03:59.465Z,78.60
2023-02-16T04:06:26.152Z,78.60
2023-02-16T04:08:52.902Z,78.60
2023-02-16T04:11:38.252Z,78.60
2023-02-16T04:14:05.162Z,78.60
2023-02-16T04:16:32.424Z,78.60
2023-02-16T04:18:59.442Z,78.60
2023-02-16T04:21:26.020Z,78.60
2023-02-16T04:23:52.719Z,78.60
2023-02-16T04:26:19.268Z,78.60
2023-02-16T04:28:45.915Z,78.60
2023-02-16T04:31:12.602Z,78.60
2023-02-16T04:33:39.259Z,78.60
2023-02-16T04:36:06.029Z,78.90
2023-02-16T04:38:32.583Z,78.60
2023-02-16T04:40:59.939Z,78.60
2023-02-16T04:43:26.505Z,78.60
2023-02-16T04:45:53.360Z,78.60
2023-02-16T04:48:19.940Z,78.60
2023-02-16T04:50:46.566Z,78.50
2023-02-16T04:53:13.148Z,78.60
2023-02-16T04:55:39.774Z,78.60
2023-02-16T04:58:06.360Z,78.50
2023-02-16T05:00:35.116Z,78.50
2023-02-16T05:03:03.105Z,78.50
2023-02-16T05:05:31.476Z,78.60
2023-02-16T05:07:58.041Z,78.50
2023-02-16T05:10:24.610Z,78.60
2023-02-16T05:13:10.158Z,78.50
2023-02-16T05:15:36.998Z,78.50
2023-02-16T05:18:03.663Z,78.60
2023-02-16T05:20:49.548Z,78.50
2023-02-16T05:23:16.327Z,78.60
2023-02-16T05:25:43.063Z,78.50
2023-02-16T05:28:09.694Z,78.60
2023-02-16T05:30:36.376Z,78.50
2023-02-16T05:33:02.994Z,78.50
2023-02-16T05:35:30.724Z,78.50
2023-02-16T05:37:57.406Z,78.50
2023-02-16T05:40:24.164Z,78.50
2023-02-16T05:42:54.440Z,78.50
2023-02-16T05:45:21.082Z,78.50
2023-02-16T05:47:47.709Z,78.40
2023-02-16T05:50:14.318Z,78.50
2023-02-16T05:52:41.127Z,78.40
2023-02-16T05:55:07.887Z,78.50
2023-02-16T05:57:34.882Z,78.50
2023-02-16T06:00:01.766Z,78.50
2023-02-16T06:02:28.454Z,78.50
2023-02-16T06:04:55.055Z,78.50
2023-02-16T06:07:21.824Z,78.50
2023-02-16T06:09:48.587Z,78.50
2023-02-16T06:12:15.374Z,78.60
2023-02-16T06:14:42.498Z,78.50
2023-02-16T06:17:09.194Z,78.40
2023-02-16T06:19:35.751Z,78.40
2023-02-16T06:22:02.461Z,78.40
2023-02-16T06:24:29.643Z,78.50
2023-02-16T06:26:56.348Z,78.40
2023-02-16T06:29:23.302Z,78.40
2023-02-16T06:31:50.074Z,78.50
2023-02-16T06:34:16.789Z,78.50
2023-02-16T06:36:43.371Z,78.50
2023-02-16T06:39:10.161Z,78.50
2023-02-16T06:41:40.475Z,78.50
2023-02-16T06:44:08.670Z,78.50
2023-02-16T06:46:35.291Z,78.50
2023-02-16T06:49:02.443Z,78.40
2023-02-16T06:51:29.062Z,78.40
2023-02-16T06:53:55.848Z,78.40
2023-02-16T06:56:22.937Z,78.50
2023-02-16T06:58:49.512Z,78.80
2023-02-16T07:01:18.125Z,79.00
2023-02-16T07:03:44.785Z,78.80
2023-02-16T07:06:11.362Z,78.70
2023-02-16T07:08:37.956Z,78.60
2023-02-16T07:11:05.216Z,78.60
2023-02-16T07:13:36.356Z,79.30
2023-02-16T07:16:06.447Z,79.60
2023-02-16T07:18:33.838Z,79.70
2023-02-16T07:21:00.524Z,79.30
2023-02-16T07:23:27.261Z,79.20
2023-02-16T07:25:54.075Z,79.10
2023-02-16T07:28:20.679Z,79.10
2023-02-16T07:30:47.392Z,80.20
2023-02-16T07:33:14.762Z,80.20
2023-02-16T07:35:41.350Z,79.40
2023-02-16T07:38:08.284Z,79.00
2023-02-16T07:40:36.228Z,78.70
2023-02-16T07:43:03.937Z,78.60
2023-02-16T07:45:32.653Z,79.40
2023-02-16T07:47:59.817Z,79.50
2023-02-16T07:50:26.665Z,79.20
2023-02-16T07:52:53.893Z,79.00
2023-02-16T07:55:20.506Z,78.80
2023-02-16T07:57:49.366Z,78.60
2023-02-16T08:00:16.313Z,78.40
2023-02-16T08:02:43.138Z,78.40
2023-02-16T08:05:10.115Z,78.40
2023-02-16T08:07:36.769Z,78.40
2023-02-16T08:10:03.658Z,78.40
2023-02-16T08:12:30.453Z,78.40
2023-02-16T08:14:57.050Z,78.40
2023-02-16T08:17:23.604Z,78.40
2023-02-16T08:19:50.682Z,78.40
2023-02-16T08:22:17.873Z,78.40
2023-02-16T08:24:44.661Z,78.40
2023-02-16T08:27:11.450Z,78.40
2023-02-16T08:29:38.055Z,78.40
2023-02-16T08:32:10.266Z,78.40
2023-02-16T08:34:37.177Z,78.40
2023-02-16T08:37:04.587Z,78.50
2023-02-16T08:39:32.765Z,78.30
2023-02-16T08:42:00.388Z,78.40
2023-02-16T08:44:28.083Z,78.50
2023-02-16T08:46:55.700Z,78.50
2023-02-16T08:49:24.213Z,78.50
2023-02-16T08:51:54.672Z,78.50
2023-02-16T08:54:22.994Z,78.50
2023-02-16T08:56:49.775Z,78.60
2023-02-16T08:59:19.449Z,78.60
2023-02-16T09:01:46.404Z,78.50
2023-02-16T09:04:13.443Z,78.60
2023-02-16T09:06:41.313Z,78.50
2023-02-16T09:09:08.732Z,78.70
2023-02-16T09:11:36.259Z,78.60
2023-02-16T09:14:03.895Z,78.80
2023-02-16T09:16:34.607Z,78.80
2023-02-16T09:19:02.035Z,78.80
2023-02-16T09:21:32.350Z,78.90
2023-02-16T09:24:00.658Z,78.80
2023-02-16T09:26:30.274Z,78.80
2023-02-16T09:28:59.120Z,78.90
2023-02-16T09:31:31.477Z,78.80
2023-02-16T09:34:01.143Z,78.90
2023-02-16T09:36:28.485Z,79.00
2023-02-16T09:38:56.453Z,79.00
2023-02-16T09:41:27.986Z,78.90
2023-02-16T09:43:59.824Z,79.10
2023-02-16T09:46:28.878Z,79.10
2023-02-16T09:48:55.677Z,79.00
2023-02-16T09:51:34.319Z,79.10
2023-02-16T09:54:26.899Z,79.00
2023-02-16T09:56:56.700Z,78.90
2023-02-16T09:59:35.470Z,79.10
2023-02-16T10:02:02.066Z,79.60
2023-02-16T10:04:35.279Z,79.80
2023-02-16T10:07:10.025Z,79.70
2023-02-16T10:09:37.567Z,79.50
2023-02-16T10:12:07.849Z,79.40
2023-02-16T10:14:41.961Z,79.40
2023-02-16T10:17:18.159Z,79.70
2023-02-16T10:19:55.940Z,79.40
2023-02-16T10:22:32.821Z,79.60
2023-02-16T10:25:05.677Z,79.60
2023-02-16T10:27:36.901Z,79.60
2023-02-16T10:30:10.786Z,79.70
2023-02-16T10:32:44.158Z,79.60
2023-02-16T10:35:15.226Z,79.70
2023-02-16T10:37:44.899Z,79.70
2023-02-16T10:40:26.689Z,79.80
2023-02-16T10:42:53.532Z,79.80
2023-02-16T10:45:38.704Z,79.90
2023-02-16T10:48:05.980Z,80.00
2023-02-16T10:50:43.397Z,80.10
2023-02-16T10:53:14.548Z,80.10
2023-02-16T10:55:41.164Z,80.00
2023-02-16T10:58:15.337Z,80.00
2023-02-16T11:01:05.736Z,80.00
2023-02-16T11:03:35.869Z,80.00
2023-02-16T11:06:12.987Z,80.00
2023-02-16T11:08:47.487Z,80.30
2023-02-16T11:11:14.136Z,80.00
2023-02-16T11:13:40.801Z,80.10
2023-02-16T11:16:11.958Z,80.10
2023-02-16T11:18:40.162Z,80.10
2023-02-16T11:21:07.617Z,80.10
2023-02-16T11:23:38.958Z,80.20
2023-02-16T11:26:07.548Z,80.30
2023-02-16T11:28:37.566Z,80.10
2023-02-16T11:31:10.315Z,80.10
2023-02-16T11:33:37.894Z,80.10
2023-02-16T11:36:18.457Z,80.10
2023-02-16T11:38:55.412Z,80.20
2023-02-16T11:41:23.780Z,80.20
2023-02-16T11:43:50.514Z,80.20
2023-02-16T11:46:18.287Z,80.30
2023-02-16T11:48:45.620Z,80.30
2023-02-16T11:51:15.112Z,80.30
2023-02-16T11:53:42.681Z,80.20
2023-02-16T11:56:16.805Z,80.40
2023-02-16T11:58:44.892Z,80.30
2023-02-16T12:01:18.722Z,80.30
2023-02-16T12:03:45.479Z,80.20
2023-02-16T12:06:20.606Z,80.30
2023-02-16T12:08:54.418Z,80.10
2023-02-16T12:11:26.184Z,80.30
2023-02-16T12:13:52.759Z,80.30
2023-02-16T12:16:28.375Z,80.10
2023-02-16T12:19:08.804Z,80.30
2023-02-16T12:21:40.722Z,80.30
2023-02-16T12:24:07.520Z,80.30
2023-02-16T12:26:44.080Z,80.30
2023-02-16T12:29:29.197Z,80.20
2023-02-16T12:31:55.751Z,80.20
2023-02-16T12:34:25.488Z,80.30
2023-02-16T12:36:55.138Z,80.30
2023-02-16T12:39:35.372Z,80.30
2023-02-16T12:42:16.994Z,80.40
2023-02-16T12:44:49.447Z,80.40
2023-02-16T12:47:23.474Z,80.40
2023-02-16T12:49:58.763Z,80.40
2023-02-16T12:52:32.580Z,80.40
2023-02-16T12:55:08.773Z,80.40
2023-02-16T12:57:35.613Z,80.40
2023-02-16T13:00:04.799Z,80.40
2023-02-16T13:02:35.416Z,80.40
2023-02-16T13:05:10.208Z,80.40
2023-02-16T13:07:41.656Z,80.40
2023-02-16T13:10:11.517Z,80.50
2023-02-16T13:12:56.756Z,80.40
2023-02-16T13:15:27.030Z,80.40
2023-02-16T13:17:57.918Z,80.50
2023-02-16T13:20:24.850Z,80.50
2023-02-16T13:22:54.161Z,80.50
2023-02-16T13:25:39.770Z,80.50
2023-02-16T13:28:06.468Z,80.40
2023-02-16T13:30:40.142Z,80.50
2023-02-16T13:33:10.998Z,81.20
2023-02-16T13:35:57.355Z,81.80
2023-02-16T13:38:43.665Z,81.60
2023-02-16T13:41:16.381Z,81.60
2023-02-16T13:43:46.049Z,81.60
2023-02-16T13:46:21.328Z,81.60
2023-02-16T13:48:53.450Z,81.30
2023-02-16T13:51:21.922Z,81.20
2023-02-16T13:54:07.201Z,81.80
2023-02-16T13:56:36.039Z,81.70
2023-02-16T13:59:22.862Z,81.70
2023-02-16T14:01:50.618Z,81.90
2023-02-16T14:04:23.599Z,81.80
2023-02-16T14:06:51.804Z,81.70
2023-02-16T14:09:19.287Z,81.70
2023-02-16T14:11:52.873Z,81.60
2023-02-16T14:14:38.529Z,81.60
2023-02-16T14:17:14.451Z,81.90
2023-02-16T14:20:01.113Z,82.40
2023-02-16T14:22:47.535Z,82.70
2023-02-16T14:25:21.059Z,82.60
2023-02-16T14:27:54.931Z,83.00
2023-02-16T14:30:27.759Z,82.80
2023-02-16T14:33:12.669Z,82.60
2023-02-16T14:35:41.101Z,82.50
2023-02-16T14:38:16.335Z,82.30
2023-02-16T14:40:50.812Z,83.10
2023-02-16T14:43:25.470Z,82.60
2023-02-16T14:45:59.887Z,82.30
2023-02-16T14:48:45.013Z,82.40
2023-02-16T14:51:31.236Z,82.30
2023-02-16T14:53:58.089Z,82.30
2023-02-16T14:56:43.591Z,82.30
2023-02-16T14:59:17.114Z,82.20
2023-02-16T15:01:44.990Z,82.00
2023-02-16T15:04:12.678Z,82.40
2023-02-16T15:06:47.062Z,82.20
2023-02-16T15:09:19.498Z,82.70
2023-02-16T15:12:08.250Z,84.80
2023-02-16T15:14:38.016Z,84.40
2023-02-16T15:19:40.841Z,83.10
2023-02-16T15:22:17.991Z,83.30
2023-02-16T15:24:54.987Z,83.10
2023-02-16T15:27:23.367Z,82.60
2023-02-16T15:30:09.458Z,82.50
2023-02-16T15:32:36.069Z,82.40
2023-02-16T15:35:10.001Z,82.50
2023-02-16T15:37:37.912Z,82.50
2023-02-16T15:40:25.888Z,82.40
2023-02-16T15:42:53.776Z,82.40
2023-02-16T15:45:27.595Z,82.30
2023-02-16T15:47:54.143Z,82.40
2023-02-16T15:50:26.828Z,82.50
2023-02-16T15:52:54.030Z,82.60
2023-02-16T15:55:21.064Z,82.70
2023-02-16T15:57:47.604Z,82.60
2023-02-16T16:00:19.346Z,82.60
2023-02-16T16:02:53.825Z,82.50
2023-02-16T16:05:36.264Z,82.50
2023-02-16T16:08:03.428Z,82.40
2023-02-16T16:10:37.088Z,82.80
2023-02-16T16:13:11.466Z,82.70
2023-02-16T16:15:42.537Z,82.60
2023-02-16T16:18:27.923Z,83.00
2023-02-16T16:21:02.596Z,83.30
2023-02-16T16:23:29.498Z,83.00
2023-02-16T16:25:56.178Z,82.70
2023-02-16T16:28:26.140Z,82.70
2023-02-16T16:31:13.493Z,83.00
2023-02-16T16:33:52.395Z,82.80
2023-02-16T16:36:19.192Z,82.60
2023-02-16T16:38:45.895Z,82.70
2023-02-16T16:41:27.658Z,82.90
2023-02-16T16:43:55.518Z,83.20
2023-02-16T16:46:26.722Z,83.10
2023-02-16T16:49:00.092Z,83.20
2023-02-16T16:51:36.344Z,83.00
2023-02-16T16:54:04.134Z,82.90
2023-02-16T16:56:34.902Z,82.80
2023-02-16T16:59:02.158Z,82.70
2023-02-16T17:01:30.217Z,82.60
2023-02-16T17:03:57.198Z,82.60
2023-02-16T17:06:24.830Z,82.50
2023-02-16T17:08:51.825Z,82.70
2023-02-16T17:11:32.765Z,82.60
2023-02-16T17:14:05.838Z,82.50
2023-02-16T17:16:35.208Z,82.50
2023-02-16T17:19:03.032Z,82.50
2023-02-16T17:21:29.747Z,82.40
2023-02-16T17:23:56.580Z,82.50
2023-02-16T17:26:23.587Z,82.50
2023-02-16T17:28:50.428Z,82.40
2023-02-16T17:31:17.315Z,82.40
2023-02-16T17:33:44.745Z,82.30
2023-02-16T17:36:13.589Z,82.20
2023-02-16T17:38:40.138Z,82.20
2023-02-16T17:41:06.844Z,82.40
2023-02-16T17:43:33.528Z,82.40
2023-02-16T17:46:04.519Z,82.40
2023-02-16T17:48:31.405Z,82.30
2023-02-16T17:50:58.201Z,82.20
2023-02-16T17:53:26.598Z,82.20
2023-02-16T17:55:54.675Z,82.40
2023-02-16T17:58:21.893Z,82.60
2023-02-16T18:00:48.530Z,83.00
2023-02-16T18:03:15.109Z,83.10
2023-02-16T18:05:41.709Z,82.70
2023-02-16T18:08:08.328Z,82.80
2023-02-16T18:10:36.924Z,82.80
2023-02-16T18:13:04.419Z,83.20
2023-02-16T18:15:30.978Z,83.60
2023-02-16T18:17:57.925Z,84.30
2023-02-16T18:20:24.546Z,84.50
2023-02-16T18:22:51.079Z,84.80
2023-02-16T18:25:17.772Z,84.60
2023-02-16T18:27:44.599Z,84.40
2023-02-16T18:30:11.460Z,84.60
2023-02-16T18:32:38.234Z,84.50
2023-02-16T18:35:05.602Z,84.50
2023-02-16T18:37:32.144Z,84.60
2023-02-16T18:39:58.731Z,84.50
2023-02-16T18:42:25.316Z,84.60
2023-02-16T18:44:51.921Z,84.70
2023-02-16T18:47:18.455Z,84.80
2023-02-16T18:49:45.021Z,84.90
2023-02-16T18:52:11.750Z,84.90
2023-02-16T18:54:38.620Z,85.00
2023-02-16T18:57:05.227Z,85.10
2023-02-16T18:59:31.765Z,85.30
2023-02-16T19:01:59.403Z,85.60
2023-02-16T19:04:26.718Z,85.70
2023-02-16T19:06:53.560Z,85.60
2023-02-16T19:09:20.328Z,85.70
2023-02-16T19:11:46.943Z,85.50
2023-02-16T19:14:13.582Z,85.60
2023-02-16T19:16:40.330Z,85.70
2023-02-16T19:19:06.913Z,85.70
2023-02-16T19:21:33.634Z,85.60
2023-02-16T19:24:00.222Z,85.80
2023-02-16T19:26:26.787Z,85.60
2023-02-16T19:28:53.823Z,85.60
2023-02-16T19:31:22.162Z,85.60
2023-02-16T19:33:49.403Z,85.70
2023-02-16T19:36:17.233Z,85.70
2023-02-16T19:38:44.278Z,85.60
2023-02-16T19:41:12.980Z,85.60
2023-02-16T19:43:40.053Z,85.60
2023-02-16T19:46:07.394Z,85.60
2023-02-16T19:48:34.152Z,85.60
2023-02-16T19:51:01.492Z,85.60
2023-02-16T19:53:28.143Z,85.60
2023-02-16T19:55:54.781Z,85.60
2023-02-16T19:58:21.847Z,85.60
2023-02-16T20:00:49.011Z,85.60
2023-02-16T20:03:15.989Z,86.10
2023-02-16T20:05:42.649Z,86.90
2023-02-16T20:08:09.599Z,87.10
2023-02-16T20:10:40.340Z,86.90
2023-02-16T20:13:07.027Z,86.50
2023-02-16T20:15:33.599Z,86.70
2023-02-16T20:18:00.171Z,86.60
2023-02-16T20:20:26.720Z,86.60
2023-02-16T20:22:53.295Z,86.40
2023-02-16T20:25:19.880Z,86.40
2023-02-16T20:27:46.455Z,86.40
2023-02-16T20:30:17.566Z,86.40
2023-02-16T20:32:45.742Z,86.20
2023-02-16T20:35:13.662Z,86.30
2023-02-16T20:37:40.343Z,86.30
2023-02-16T20:40:07.325Z,86.30
2023-02-16T20:42:33.940Z,86.30
2023-02-16T20:45:00.521Z,86.20
2023-02-16T20:47:27.104Z,86.10
2023-02-16T20:49:53.765Z,86.30
2023-02-16T20:52:20.346Z,86.20
2023-02-16T20:54:46.942Z,86.20
2023-02-16T20:57:26.086Z,86.30
2023-02-16T20:59:53.780Z,86.30
2023-02-16T21:02:20.410Z,86.20
2023-02-16T21:04:46.989Z,86.10
2023-02-16T21:07:13.557Z,86.10
2023-02-16T21:09:40.196Z,86.30
2023-02-16T21:12:06.806Z,86.30
2023-02-16T21:14:33.465Z,86.20
2023-02-16T21:17:00.537Z,86.20
2023-02-16T21:19:27.122Z,86.30
2023-02-16T21:21:53.713Z,86.30
2023-02-16T21:24:20.408Z,86.30
2023-02-16T21:26:47.109Z,86.30
2023-02-16T21:29:13.791Z,86.20
2023-02-16T21:31:40.441Z,86.30
2023-02-16T21:34:07.035Z,86.40
2023-02-16T21:36:33.600Z,86.40
2023-02-16T21:39:01.877Z,86.40
2023-02-16T21:41:29.713Z,86.40
2023-02-16T21:44:04.039Z,86.60
2023-02-16T21:46:31.972Z,86.80
2023-02-16T21:48:59.053Z,87.20
2023-02-16T21:51:32.750Z,87.40
2023-02-16T21:53:59.494Z,87.40
2023-02-16T21:56:29.260Z,87.40
2023-02-16T21:58:56.141Z,87.60
2023-02-16T22:01:33.506Z,87.70
2023-02-16T22:04:00.552Z,87.40
2023-02-16T22:06:28.681Z,87.20
2023-02-16T22:08:55.569Z,87.20
2023-02-16T22:11:22.228Z,87.60
2023-02-16T22:13:53.123Z,87.40
2023-02-16T22:16:20.262Z,87.50
2023-02-16T22:18:47.581Z,87.80
2023-02-16T22:21:14.915Z,87.60
2023-02-16T22:23:41.688Z,87.60
2023-02-16T22:26:08.579Z,87.90
2023-02-16T22:28:35.787Z,87.80
2023-02-16T22:31:06.015Z,88.10
2023-02-16T22:33:32.696Z,88.10
2023-02-16T22:36:05.161Z,88.60
2023-02-16T22:38:31.872Z,88.40
2023-02-16T22:40:58.514Z,88.90
2023-02-16T22:43:25.114Z,89.00
2023-02-16T22:45:51.706Z,88.70
2023-02-16T22:48:18.284Z,88.80
2023-02-16T22:50:44.866Z,88.60
2023-02-16T22:53:11.475Z,88.50
2023-02-16T22:55:41.289Z,88.90
2023-02-16T22:58:07.833Z,88.70
2023-02-16T23:00:34.395Z,89.10
2023-02-16T23:03:01.029Z,89.20
2023-02-16T23:05:29.362Z,88.70
2023-02-16T23:07:55.925Z,88.50
2023-02-16T23:10:24.319Z,88.00
2023-02-16T23:12:50.931Z,87.80
2023-02-16T23:15:17.499Z,87.80
2023-02-16T23:17:44.078Z,87.80
2023-02-16T23:20:10.910Z,88.70
2023-02-16T23:22:37.509Z,89.00
2023-02-16T23:25:22.869Z,89.20
2023-02-16T23:27:51.429Z,89.20
2023-02-16T23:30:18.053Z,89.60
2023-02-16T23:32:45.085Z,89.40
2023-02-16T23:35:11.683Z,88.70
2023-02-16T23:37:38.301Z,88.30
2023-02-16T23:40:05.452Z,88.30
2023-02-16T23:42:32.078Z,88.40
2023-02-16T23:44:58.632Z,88.40
2023-02-16T23:47:25.201Z,88.20
2023-02-16T23:49:51.768Z,88.30
2023-02-16T23:52:18.352Z,88.20
2023-02-16T23:54:44.903Z,88.10
2023-02-16T23:57:11.446Z,88.30
2023-02-16T23:59:38.327Z,88.10
